sensor_id;sensor_type;location;lat;lon;timestamp;P1;durP1;ratioP1;P2;durP2;ratioP2
30539;SDS011;17321;46.312;4.776;2024-02-04T00:01:43;17.35;;;12.30;;
30539;SDS011;17321;46.312;4.776;2024-02-04T00:04:09;18.70;;;11.00;;
30539;SDS011;17321;46.312;4.776;2024-02-04T00:06:35;16.75;;;12.27;;
30539;SDS011;17321;46.312;4.776;2024-02-04T00:09:01;17.50;;;11.48;;
30539;SDS011;17321;46.312;4.776;2024-02-04T00:11:29;16.88;;;12.02;;
30539;SDS011;17321;46.312;4.776;2024-02-04T00:13:55;16.50;;;11.88;;
30539;SDS011;17321;46.312;4.776;2024-02-04T00:16:21;17.55;;;12.18;;
30539;SDS011;17321;46.312;4.776;2024-02-04T00:18:47;14.98;;;10.57;;
30539;SDS011;17321;46.312;4.776;2024-02-04T00:21:13;15.73;;;11.05;;
30539;SDS011;17321;46.312;4.776;2024-02-04T00:23:39;16.15;;;11.98;;
30539;SDS011;17321;46.312;4.776;2024-02-04T00:26:05;15.45;;;11.63;;
30539;SDS011;17321;46.312;4.776;2024-02-04T00:28:31;15.70;;;10.45;;
30539;SDS011;17321;46.312;4.776;2024-02-04T00:30:57;16.90;;;10.90;;
30539;SDS011;17321;46.312;4.776;2024-02-04T00:33:24;17.77;;;10.95;;
30539;SDS011;17321;46.312;4.776;2024-02-04T00:35:50;15.20;;;10.55;;
30539;SDS011;17321;46.312;4.776;2024-02-04T00:38:16;15.85;;;9.40;;
30539;SDS011;17321;46.312;4.776;2024-02-04T00:40:42;11.32;;;8.82;;
30539;SDS011;17321;46.312;4.776;2024-02-04T00:43:08;12.57;;;8.80;;
30539;SDS011;17321;46.312;4.776;2024-02-04T00:45:35;11.13;;;8.25;;
30539;SDS011;17321;46.312;4.776;2024-02-04T00:48:01;13.43;;;9.27;;
30539;SDS011;17321;46.312;4.776;2024-02-04T00:50:27;11.88;;;8.85;;
30539;SDS011;17321;46.312;4.776;2024-02-04T00:52:53;11.30;;;8.52;;
30539;SDS011;17321;46.312;4.776;2024-02-04T00:55:19;10.30;;;7.78;;
30539;SDS011;17321;46.312;4.776;2024-02-04T00:57:45;14.02;;;9.18;;
30539;SDS011;17321;46.312;4.776;2024-02-04T01:00:11;13.52;;;9.75;;
30539;SDS011;17321;46.312;4.776;2024-02-04T01:05:06;10.48;;;8.65;;
30539;SDS011;17321;46.312;4.776;2024-02-04T01:07:33;11.52;;;8.68;;
30539;SDS011;17321;46.312;4.776;2024-02-04T01:09:59;12.88;;;9.32;;
30539;SDS011;17321;46.312;4.776;2024-02-04T01:12:25;12.43;;;8.98;;
30539;SDS011;17321;46.312;4.776;2024-02-04T01:14:51;16.38;;;10.25;;
30539;SDS011;17321;46.312;4.776;2024-02-04T01:17:16;11.95;;;8.95;;
30539;SDS011;17321;46.312;4.776;2024-02-04T01:19:43;20.48;;;13.32;;
30539;SDS011;17321;46.312;4.776;2024-02-04T01:22:09;41.20;;;23.38;;
30539;SDS011;17321;46.312;4.776;2024-02-04T01:24:34;13.05;;;9.50;;
30539;SDS011;17321;46.312;4.776;2024-02-04T01:27:00;14.50;;;9.23;;
30539;SDS011;17321;46.312;4.776;2024-02-04T01:29:26;11.55;;;8.15;;
30539;SDS011;17321;46.312;4.776;2024-02-04T01:31:52;12.98;;;7.72;;
30539;SDS011;17321;46.312;4.776;2024-02-04T01:34:19;11.55;;;7.47;;
30539;SDS011;17321;46.312;4.776;2024-02-04T01:36:45;7.68;;;5.60;;
30539;SDS011;17321;46.312;4.776;2024-02-04T01:39:11;8.23;;;6.30;;
30539;SDS011;17321;46.312;4.776;2024-02-04T01:41:37;7.88;;;5.60;;
30539;SDS011;17321;46.312;4.776;2024-02-04T01:44:03;9.90;;;7.43;;
30539;SDS011;17321;46.312;4.776;2024-02-04T01:46:29;11.70;;;7.35;;
30539;SDS011;17321;46.312;4.776;2024-02-04T01:48:55;9.85;;;6.32;;
30539;SDS011;17321;46.312;4.776;2024-02-04T01:51:21;6.97;;;5.10;;
30539;SDS011;17321;46.312;4.776;2024-02-04T01:53:47;5.38;;;4.68;;
30539;SDS011;17321;46.312;4.776;2024-02-04T01:56:14;9.55;;;5.38;;
30539;SDS011;17321;46.312;4.776;2024-02-04T01:58:41;6.38;;;4.55;;
30539;SDS011;17321;46.312;4.776;2024-02-04T02:01:09;7.30;;;5.25;;
30539;SDS011;17321;46.312;4.776;2024-02-04T02:03:35;6.43;;;4.43;;
30539;SDS011;17321;46.312;4.776;2024-02-04T02:06:01;9.38;;;5.47;;
30539;SDS011;17321;46.312;4.776;2024-02-04T02:08:27;7.15;;;4.10;;
30539;SDS011;17321;46.312;4.776;2024-02-04T02:10:57;7.07;;;4.30;;
30539;SDS011;17321;46.312;4.776;2024-02-04T02:13:30;4.80;;;3.17;;
30539;SDS011;17321;46.312;4.776;2024-02-04T02:15:58;8.80;;;5.10;;
30539;SDS011;17321;46.312;4.776;2024-02-04T02:18:36;5.75;;;3.72;;
30539;SDS011;17321;46.312;4.776;2024-02-04T02:23:36;4.75;;;3.40;;
30539;SDS011;17321;46.312;4.776;2024-02-04T02:26:06;5.82;;;3.30;;
30539;SDS011;17321;46.312;4.776;2024-02-04T02:28:32;10.95;;;4.18;;
30539;SDS011;17321;46.312;4.776;2024-02-04T02:30:58;3.00;;;2.30;;
30539;SDS011;17321;46.312;4.776;2024-02-04T02:33:24;2.95;;;2.40;;
30539;SDS011;17321;46.312;4.776;2024-02-04T02:35:51;11.70;;;6.57;;
30539;SDS011;17321;46.312;4.776;2024-02-04T02:38:25;3.65;;;3.35;;
30539;SDS011;17321;46.312;4.776;2024-02-04T02:40:58;5.43;;;3.00;;
30539;SDS011;17321;46.312;4.776;2024-02-04T02:43:24;3.05;;;2.58;;
30539;SDS011;17321;46.312;4.776;2024-02-04T02:45:51;3.10;;;1.77;;
30539;SDS011;17321;46.312;4.776;2024-02-04T02:48:17;2.67;;;1.98;;
30539;SDS011;17321;46.312;4.776;2024-02-04T02:50:44;4.05;;;2.47;;
30539;SDS011;17321;46.312;4.776;2024-02-04T02:53:10;3.13;;;2.22;;
30539;SDS011;17321;46.312;4.776;2024-02-04T02:55:36;3.60;;;2.38;;
30539;SDS011;17321;46.312;4.776;2024-02-04T02:58:02;7.15;;;2.00;;
30539;SDS011;17321;46.312;4.776;2024-02-04T03:00:28;2.58;;;1.88;;
30539;SDS011;17321;46.312;4.776;2024-02-04T03:02:54;3.22;;;2.20;;
30539;SDS011;17321;46.312;4.776;2024-02-04T03:05:21;2.92;;;1.80;;
30539;SDS011;17321;46.312;4.776;2024-02-04T03:07:47;2.95;;;2.10;;
30539;SDS011;17321;46.312;4.776;2024-02-04T03:10:13;4.72;;;2.40;;
30539;SDS011;17321;46.312;4.776;2024-02-04T03:12:39;3.88;;;2.00;;
30539;SDS011;17321;46.312;4.776;2024-02-04T03:15:05;2.58;;;1.77;;
30539;SDS011;17321;46.312;4.776;2024-02-04T03:17:31;3.63;;;1.77;;
30539;SDS011;17321;46.312;4.776;2024-02-04T03:19:57;2.05;;;1.60;;
30539;SDS011;17321;46.312;4.776;2024-02-04T03:22:23;3.17;;;1.92;;
30539;SDS011;17321;46.312;4.776;2024-02-04T03:24:49;2.13;;;1.23;;
30539;SDS011;17321;46.312;4.776;2024-02-04T03:27:18;2.83;;;1.80;;
30539;SDS011;17321;46.312;4.776;2024-02-04T03:29:44;1.60;;;1.50;;
30539;SDS011;17321;46.312;4.776;2024-02-04T03:32:10;2.38;;;1.40;;
30539;SDS011;17321;46.312;4.776;2024-02-04T03:34:37;2.63;;;1.55;;
30539;SDS011;17321;46.312;4.776;2024-02-04T03:37:04;1.55;;;1.40;;
30539;SDS011;17321;46.312;4.776;2024-02-04T03:39:30;1.88;;;1.40;;
30539;SDS011;17321;46.312;4.776;2024-02-04T03:41:56;2.65;;;1.85;;
30539;SDS011;17321;46.312;4.776;2024-02-04T03:44:22;2.17;;;1.75;;
30539;SDS011;17321;46.312;4.776;2024-02-04T03:46:49;2.65;;;1.52;;
30539;SDS011;17321;46.312;4.776;2024-02-04T03:49:15;2.70;;;1.30;;
30539;SDS011;17321;46.312;4.776;2024-02-04T03:51:41;3.40;;;1.60;;
30539;SDS011;17321;46.312;4.776;2024-02-04T03:54:07;4.40;;;2.47;;
30539;SDS011;17321;46.312;4.776;2024-02-04T03:56:33;2.25;;;1.60;;
30539;SDS011;17321;46.312;4.776;2024-02-04T03:58:59;4.32;;;1.48;;
30539;SDS011;17321;46.312;4.776;2024-02-04T04:01:25;9.38;;;1.65;;
30539;SDS011;17321;46.312;4.776;2024-02-04T04:03:51;6.72;;;1.70;;
30539;SDS011;17321;46.312;4.776;2024-02-04T04:06:17;2.65;;;1.75;;
30539;SDS011;17321;46.312;4.776;2024-02-04T04:08:43;2.58;;;1.38;;
30539;SDS011;17321;46.312;4.776;2024-02-04T04:11:10;2.92;;;1.50;;
30539;SDS011;17321;46.312;4.776;2024-02-04T04:13:36;3.72;;;1.15;;
30539;SDS011;17321;46.312;4.776;2024-02-04T04:16:02;3.58;;;1.58;;
30539;SDS011;17321;46.312;4.776;2024-02-04T04:18:29;4.80;;;1.92;;
30539;SDS011;17321;46.312;4.776;2024-02-04T04:20:55;2.85;;;1.70;;
30539;SDS011;17321;46.312;4.776;2024-02-04T04:23:21;3.17;;;1.88;;
30539;SDS011;17321;46.312;4.776;2024-02-04T04:25:47;2.85;;;1.80;;
30539;SDS011;17321;46.312;4.776;2024-02-04T04:28:12;1.90;;;1.55;;
30539;SDS011;17321;46.312;4.776;2024-02-04T04:30:38;1.45;;;1.35;;
30539;SDS011;17321;46.312;4.776;2024-02-04T04:33:05;2.67;;;1.10;;
30539;SDS011;17321;46.312;4.776;2024-02-04T04:35:31;4.47;;;1.40;;
30539;SDS011;17321;46.312;4.776;2024-02-04T04:37:57;1.30;;;0.90;;
30539;SDS011;17321;46.312;4.776;2024-02-04T04:40:23;5.85;;;1.50;;
30539;SDS011;17321;46.312;4.776;2024-02-04T04:42:49;2.13;;;1.42;;
30539;SDS011;17321;46.312;4.776;2024-02-04T04:45:15;6.30;;;1.58;;
30539;SDS011;17321;46.312;4.776;2024-02-04T04:47:41;6.55;;;1.80;;
30539;SDS011;17321;46.312;4.776;2024-02-04T04:50:07;3.92;;;1.50;;
30539;SDS011;17321;46.312;4.776;2024-02-04T04:52:34;5.75;;;1.60;;
30539;SDS011;17321;46.312;4.776;2024-02-04T04:55:00;2.13;;;1.00;;
30539;SDS011;17321;46.312;4.776;2024-02-04T04:57:26;2.22;;;1.02;;
30539;SDS011;17321;46.312;4.776;2024-02-04T04:59:52;6.97;;;1.20;;
30539;SDS011;17321;46.312;4.776;2024-02-04T05:02:18;6.07;;;1.40;;
30539;SDS011;17321;46.312;4.776;2024-02-04T05:04:44;2.15;;;1.23;;
30539;SDS011;17321;46.312;4.776;2024-02-04T05:07:10;1.45;;;1.10;;
30539;SDS011;17321;46.312;4.776;2024-02-04T05:09:36;3.20;;;1.40;;
30539;SDS011;17321;46.312;4.776;2024-02-04T05:12:03;4.18;;;1.00;;
30539;SDS011;17321;46.312;4.776;2024-02-04T05:14:29;3.58;;;1.10;;
30539;SDS011;17321;46.312;4.776;2024-02-04T05:16:55;4.10;;;1.02;;
30539;SDS011;17321;46.312;4.776;2024-02-04T05:19:21;3.10;;;1.63;;
30539;SDS011;17321;46.312;4.776;2024-02-04T05:21:47;2.38;;;0.90;;
30539;SDS011;17321;46.312;4.776;2024-02-04T05:24:13;1.75;;;0.88;;
30539;SDS011;17321;46.312;4.776;2024-02-04T05:26:39;2.53;;;0.95;;
30539;SDS011;17321;46.312;4.776;2024-02-04T05:29:05;5.78;;;1.45;;
30539;SDS011;17321;46.312;4.776;2024-02-04T05:31:31;1.92;;;1.08;;
30539;SDS011;17321;46.312;4.776;2024-02-04T05:33:57;3.25;;;1.00;;
30539;SDS011;17321;46.312;4.776;2024-02-04T05:36:23;4.05;;;0.95;;
30539;SDS011;17321;46.312;4.776;2024-02-04T05:38:49;4.68;;;1.13;;
30539;SDS011;17321;46.312;4.776;2024-02-04T05:41:15;6.50;;;1.50;;
30539;SDS011;17321;46.312;4.776;2024-02-04T05:43:41;2.80;;;0.90;;
30539;SDS011;17321;46.312;4.776;2024-02-04T05:46:07;1.63;;;0.80;;
30539;SDS011;17321;46.312;4.776;2024-02-04T05:48:33;1.85;;;0.88;;
30539;SDS011;17321;46.312;4.776;2024-02-04T05:50:59;2.25;;;1.10;;
30539;SDS011;17321;46.312;4.776;2024-02-04T05:53:25;1.67;;;1.00;;
30539;SDS011;17321;46.312;4.776;2024-02-04T05:55:51;3.65;;;1.20;;
30539;SDS011;17321;46.312;4.776;2024-02-04T05:58:17;3.13;;;1.10;;
30539;SDS011;17321;46.312;4.776;2024-02-04T06:00:43;1.88;;;1.10;;
30539;SDS011;17321;46.312;4.776;2024-02-04T06:03:09;1.80;;;1.00;;
30539;SDS011;17321;46.312;4.776;2024-02-04T06:05:35;2.30;;;1.08;;
30539;SDS011;17321;46.312;4.776;2024-02-04T06:08:02;3.60;;;1.20;;
30539;SDS011;17321;46.312;4.776;2024-02-04T06:10:28;1.83;;;1.17;;
30539;SDS011;17321;46.312;4.776;2024-02-04T06:12:54;8.32;;;1.80;;
30539;SDS011;17321;46.312;4.776;2024-02-04T06:15:19;3.15;;;1.20;;
30539;SDS011;17321;46.312;4.776;2024-02-04T06:17:46;1.27;;;0.80;;
30539;SDS011;17321;46.312;4.776;2024-02-04T06:20:12;3.17;;;1.27;;
30539;SDS011;17321;46.312;4.776;2024-02-04T06:22:38;5.40;;;1.40;;
30539;SDS011;17321;46.312;4.776;2024-02-04T06:25:04;2.42;;;1.20;;
30539;SDS011;17321;46.312;4.776;2024-02-04T06:27:30;3.10;;;1.15;;
30539;SDS011;17321;46.312;4.776;2024-02-04T06:29:56;4.25;;;1.00;;
30539;SDS011;17321;46.312;4.776;2024-02-04T06:32:22;1.88;;;1.00;;
30539;SDS011;17321;46.312;4.776;2024-02-04T06:34:49;3.95;;;1.38;;
30539;SDS011;17321;46.312;4.776;2024-02-04T06:37:16;2.33;;;1.60;;
30539;SDS011;17321;46.312;4.776;2024-02-04T06:39:42;1.85;;;1.00;;
30539;SDS011;17321;46.312;4.776;2024-02-04T06:42:08;1.95;;;0.88;;
30539;SDS011;17321;46.312;4.776;2024-02-04T06:44:34;6.80;;;1.30;;
30539;SDS011;17321;46.312;4.776;2024-02-04T06:47:00;5.70;;;1.45;;
30539;SDS011;17321;46.312;4.776;2024-02-04T06:49:26;4.35;;;1.20;;
30539;SDS011;17321;46.312;4.776;2024-02-04T06:51:52;2.05;;;0.90;;
30539;SDS011;17321;46.312;4.776;2024-02-04T06:56:47;1.90;;;0.80;;
30539;SDS011;17321;46.312;4.776;2024-02-04T06:59:13;2.63;;;1.48;;
30539;SDS011;17321;46.312;4.776;2024-02-04T07:01:39;2.13;;;0.80;;
30539;SDS011;17321;46.312;4.776;2024-02-04T07:04:05;2.22;;;1.00;;
30539;SDS011;17321;46.312;4.776;2024-02-04T07:06:31;3.05;;;0.80;;
30539;SDS011;17321;46.312;4.776;2024-02-04T07:08:57;9.80;;;6.30;;
30539;SDS011;17321;46.312;4.776;2024-02-04T07:11:24;10.40;;;7.93;;
30539;SDS011;17321;46.312;4.776;2024-02-04T07:13:50;2.85;;;2.63;;
30539;SDS011;17321;46.312;4.776;2024-02-04T07:16:23;1.80;;;1.00;;
30539;SDS011;17321;46.312;4.776;2024-02-04T07:18:49;0.85;;;0.75;;
30539;SDS011;17321;46.312;4.776;2024-02-04T07:21:15;1.17;;;0.70;;
30539;SDS011;17321;46.312;4.776;2024-02-04T07:23:41;2.40;;;0.88;;
30539;SDS011;17321;46.312;4.776;2024-02-04T07:26:07;8.18;;;2.88;;
30539;SDS011;17321;46.312;4.776;2024-02-04T07:28:33;1.58;;;1.48;;
30539;SDS011;17321;46.312;4.776;2024-02-04T07:30:59;2.85;;;1.65;;
30539;SDS011;17321;46.312;4.776;2024-02-04T07:33:26;2.72;;;2.53;;
30539;SDS011;17321;46.312;4.776;2024-02-04T07:35:52;0.82;;;0.82;;
30539;SDS011;17321;46.312;4.776;2024-02-04T07:38:17;3.78;;;1.20;;
30539;SDS011;17321;46.312;4.776;2024-02-04T07:40:44;1.73;;;1.27;;
30539;SDS011;17321;46.312;4.776;2024-02-04T07:43:10;0.80;;;0.80;;
30539;SDS011;17321;46.312;4.776;2024-02-04T07:45:35;6.32;;;1.42;;
30539;SDS011;17321;46.312;4.776;2024-02-04T07:48:02;2.45;;;0.63;;
30539;SDS011;17321;46.312;4.776;2024-02-04T07:50:29;2.63;;;1.02;;
30539;SDS011;17321;46.312;4.776;2024-02-04T07:52:55;0.60;;;0.60;;
30539;SDS011;17321;46.312;4.776;2024-02-04T07:55:20;1.48;;;1.13;;
30539;SDS011;17321;46.312;4.776;2024-02-04T07:57:46;1.15;;;0.88;;
30539;SDS011;17321;46.312;4.776;2024-02-04T08:00:13;3.42;;;1.15;;
30539;SDS011;17321;46.312;4.776;2024-02-04T08:02:39;5.07;;;1.20;;
30539;SDS011;17321;46.312;4.776;2024-02-04T08:05:05;2.13;;;0.80;;
30539;SDS011;17321;46.312;4.776;2024-02-04T08:07:31;0.98;;;0.82;;
30539;SDS011;17321;46.312;4.776;2024-02-04T08:09:57;4.93;;;1.20;;
30539;SDS011;17321;46.312;4.776;2024-02-04T08:12:23;2.17;;;1.00;;
30539;SDS011;17321;46.312;4.776;2024-02-04T08:14:49;1.23;;;0.90;;
30539;SDS011;17321;46.312;4.776;2024-02-04T08:17:15;1.13;;;1.00;;
30539;SDS011;17321;46.312;4.776;2024-02-04T08:19:41;2.25;;;1.08;;
30539;SDS011;17321;46.312;4.776;2024-02-04T08:22:07;2.42;;;1.10;;
30539;SDS011;17321;46.312;4.776;2024-02-04T08:24:33;2.72;;;0.90;;
30539;SDS011;17321;46.312;4.776;2024-02-04T08:27:00;2.13;;;1.45;;
30539;SDS011;17321;46.312;4.776;2024-02-04T08:29:26;4.95;;;1.38;;
30539;SDS011;17321;46.312;4.776;2024-02-04T08:31:52;3.63;;;1.40;;
30539;SDS011;17321;46.312;4.776;2024-02-04T08:34:18;1.75;;;1.33;;
30539;SDS011;17321;46.312;4.776;2024-02-04T08:36:51;5.03;;;1.08;;
30539;SDS011;17321;46.312;4.776;2024-02-04T08:39:17;4.90;;;1.20;;
30539;SDS011;17321;46.312;4.776;2024-02-04T08:41:43;2.72;;;0.98;;
30539;SDS011;17321;46.312;4.776;2024-02-04T08:44:09;2.67;;;0.95;;
30539;SDS011;17321;46.312;4.776;2024-02-04T08:46:35;4.10;;;0.98;;
30539;SDS011;17321;46.312;4.776;2024-02-04T08:49:01;1.58;;;1.00;;
30539;SDS011;17321;46.312;4.776;2024-02-04T08:51:27;2.55;;;1.40;;
30539;SDS011;17321;46.312;4.776;2024-02-04T08:53:53;2.55;;;1.20;;
30539;SDS011;17321;46.312;4.776;2024-02-04T08:56:19;4.00;;;1.15;;
30539;SDS011;17321;46.312;4.776;2024-02-04T08:58:45;2.60;;;1.00;;
30539;SDS011;17321;46.312;4.776;2024-02-04T09:01:11;5.70;;;0.98;;
30539;SDS011;17321;46.312;4.776;2024-02-04T09:03:37;1.27;;;0.75;;
30539;SDS011;17321;46.312;4.776;2024-02-04T09:06:03;1.02;;;0.80;;
30539;SDS011;17321;46.312;4.776;2024-02-04T09:08:29;2.30;;;1.30;;
30539;SDS011;17321;46.312;4.776;2024-02-04T09:10:55;1.50;;;1.08;;
30539;SDS011;17321;46.312;4.776;2024-02-04T09:13:22;3.08;;;0.90;;
30539;SDS011;17321;46.312;4.776;2024-02-04T09:15:49;4.32;;;0.70;;
30539;SDS011;17321;46.312;4.776;2024-02-04T09:18:15;0.95;;;0.70;;
30539;SDS011;17321;46.312;4.776;2024-02-04T09:20:41;3.22;;;1.05;;
30539;SDS011;17321;46.312;4.776;2024-02-04T09:23:07;2.95;;;0.90;;
30539;SDS011;17321;46.312;4.776;2024-02-04T09:25:33;2.25;;;1.02;;
30539;SDS011;17321;46.312;4.776;2024-02-04T09:27:59;3.72;;;0.95;;
30539;SDS011;17321;46.312;4.776;2024-02-04T09:30:25;2.55;;;0.93;;
30539;SDS011;17321;46.312;4.776;2024-02-04T09:32:51;5.65;;;0.80;;
30539;SDS011;17321;46.312;4.776;2024-02-04T09:35:17;3.72;;;0.80;;
30539;SDS011;17321;46.312;4.776;2024-02-04T09:37:44;1.92;;;0.93;;
30539;SDS011;17321;46.312;4.776;2024-02-04T09:40:10;2.47;;;0.90;;
30539;SDS011;17321;46.312;4.776;2024-02-04T09:42:37;4.97;;;1.30;;
30539;SDS011;17321;46.312;4.776;2024-02-04T09:45:03;1.30;;;0.80;;
30539;SDS011;17321;46.312;4.776;2024-02-04T09:47:29;3.35;;;0.80;;
30539;SDS011;17321;46.312;4.776;2024-02-04T09:49:57;0.70;;;0.70;;
30539;SDS011;17321;46.312;4.776;2024-02-04T09:52:25;1.88;;;0.95;;
30539;SDS011;17321;46.312;4.776;2024-02-04T09:54:58;2.28;;;0.80;;
30539;SDS011;17321;46.312;4.776;2024-02-04T09:57:25;1.17;;;0.80;;
30539;SDS011;17321;46.312;4.776;2024-02-04T09:59:51;5.55;;;1.08;;
30539;SDS011;17321;46.312;4.776;2024-02-04T10:02:17;1.98;;;0.80;;
30539;SDS011;17321;46.312;4.776;2024-02-04T10:04:44;2.78;;;0.93;;
30539;SDS011;17321;46.312;4.776;2024-02-04T10:07:10;1.00;;;0.90;;
30539;SDS011;17321;46.312;4.776;2024-02-04T10:09:38;0.70;;;0.70;;
30539;SDS011;17321;46.312;4.776;2024-02-04T10:12:04;6.93;;;1.02;;
30539;SDS011;17321;46.312;4.776;2024-02-04T10:14:31;1.50;;;0.68;;
30539;SDS011;17321;46.312;4.776;2024-02-04T10:16:57;1.02;;;0.70;;
30539;SDS011;17321;46.312;4.776;2024-02-04T10:19:26;0.98;;;0.70;;
30539;SDS011;17321;46.312;4.776;2024-02-04T10:22:01;2.17;;;0.80;;
30539;SDS011;17321;46.312;4.776;2024-02-04T10:24:28;1.58;;;0.80;;
30539;SDS011;17321;46.312;4.776;2024-02-04T10:26:54;3.03;;;0.80;;
30539;SDS011;17321;46.312;4.776;2024-02-04T10:29:21;4.63;;;0.68;;
30539;SDS011;17321;46.312;4.776;2024-02-04T10:31:47;2.05;;;0.65;;
30539;SDS011;17321;46.312;4.776;2024-02-04T10:34:13;2.50;;;0.80;;
30539;SDS011;17321;46.312;4.776;2024-02-04T10:36:39;1.70;;;0.60;;
30539;SDS011;17321;46.312;4.776;2024-02-04T10:39:06;0.98;;;0.50;;
30539;SDS011;17321;46.312;4.776;2024-02-04T10:41:32;1.42;;;0.60;;
30539;SDS011;17321;46.312;4.776;2024-02-04T10:44:00;2.88;;;0.77;;
30539;SDS011;17321;46.312;4.776;2024-02-04T10:48:55;4.72;;;0.75;;
30539;SDS011;17321;46.312;4.776;2024-02-04T10:51:24;5.35;;;2.95;;
30539;SDS011;17321;46.312;4.776;2024-02-04T10:53:51;1.15;;;0.70;;
30539;SDS011;17321;46.312;4.776;2024-02-04T10:56:30;0.77;;;0.77;;
30539;SDS011;17321;46.312;4.776;2024-02-04T10:58:56;3.33;;;0.77;;
30539;SDS011;17321;46.312;4.776;2024-02-04T11:01:25;9.70;;;3.25;;
30539;SDS011;17321;46.312;4.776;2024-02-04T11:03:51;7.75;;;4.15;;
30539;SDS011;17321;46.312;4.776;2024-02-04T11:06:18;2.58;;;1.42;;
30539;SDS011;17321;46.312;4.776;2024-02-04T11:08:46;5.50;;;1.73;;
30539;SDS011;17321;46.312;4.776;2024-02-04T11:11:12;1.17;;;0.98;;
30539;SDS011;17321;46.312;4.776;2024-02-04T11:13:39;3.75;;;0.50;;
30539;SDS011;17321;46.312;4.776;2024-02-04T11:16:08;2.58;;;0.90;;
30539;SDS011;17321;46.312;4.776;2024-02-04T11:26:41;1.42;;;0.50;;
30539;SDS011;17321;46.312;4.776;2024-02-04T11:29:07;2.28;;;1.00;;
30539;SDS011;17321;46.312;4.776;2024-02-04T11:31:38;2.03;;;0.57;;
30539;SDS011;17321;46.312;4.776;2024-02-04T11:34:04;0.50;;;0.40;;
30539;SDS011;17321;46.312;4.776;2024-02-04T11:36:37;0.45;;;0.45;;
30539;SDS011;17321;46.312;4.776;2024-02-04T11:39:11;2.85;;;0.70;;
30539;SDS011;17321;46.312;4.776;2024-02-04T11:41:44;1.00;;;0.88;;
30539;SDS011;17321;46.312;4.776;2024-02-04T11:44:11;1.27;;;0.90;;
30539;SDS011;17321;46.312;4.776;2024-02-04T11:46:36;0.80;;;0.60;;
30539;SDS011;17321;46.312;4.776;2024-02-04T11:49:02;0.60;;;0.45;;
30539;SDS011;17321;46.312;4.776;2024-02-04T11:51:29;0.73;;;0.57;;
30539;SDS011;17321;46.312;4.776;2024-02-04T11:53:55;3.85;;;0.47;;
30539;SDS011;17321;46.312;4.776;2024-02-04T11:56:23;1.42;;;0.52;;
30539;SDS011;17321;46.312;4.776;2024-02-04T11:58:50;1.25;;;0.40;;
30539;SDS011;17321;46.312;4.776;2024-02-04T12:01:17;1.27;;;0.80;;
30539;SDS011;17321;46.312;4.776;2024-02-04T12:03:43;0.60;;;0.35;;
30539;SDS011;17321;46.312;4.776;2024-02-04T12:06:09;2.00;;;0.60;;
30539;SDS011;17321;46.312;4.776;2024-02-04T12:08:40;3.47;;;0.77;;
30539;SDS011;17321;46.312;4.776;2024-02-04T12:11:08;1.05;;;0.50;;
30539;SDS011;17321;46.312;4.776;2024-02-04T12:13:34;0.77;;;0.68;;
30539;SDS011;17321;46.312;4.776;2024-02-04T12:16:04;3.22;;;0.80;;
30539;SDS011;17321;46.312;4.776;2024-02-04T12:18:30;0.52;;;0.40;;
30539;SDS011;17321;46.312;4.776;2024-02-04T12:20:56;1.30;;;0.80;;
30539;SDS011;17321;46.312;4.776;2024-02-04T12:23:22;1.27;;;0.40;;
30539;SDS011;17321;46.312;4.776;2024-02-04T12:25:48;3.00;;;0.70;;
30539;SDS011;17321;46.312;4.776;2024-02-04T12:28:15;4.60;;;0.70;;
30539;SDS011;17321;46.312;4.776;2024-02-04T12:30:51;1.02;;;0.75;;
30539;SDS011;17321;46.312;4.776;2024-02-04T12:33:18;1.40;;;0.90;;
30539;SDS011;17321;46.312;4.776;2024-02-04T12:35:48;3.42;;;1.02;;
30539;SDS011;17321;46.312;4.776;2024-02-04T12:38:15;2.40;;;0.95;;
30539;SDS011;17321;46.312;4.776;2024-02-04T12:40:44;2.05;;;0.65;;
30539;SDS011;17321;46.312;4.776;2024-02-04T12:43:11;1.58;;;0.98;;
30539;SDS011;17321;46.312;4.776;2024-02-04T12:45:37;0.80;;;0.80;;
30539;SDS011;17321;46.312;4.776;2024-02-04T12:48:03;3.95;;;0.85;;
30539;SDS011;17321;46.312;4.776;2024-02-04T12:50:29;1.58;;;1.00;;
30539;SDS011;17321;46.312;4.776;2024-02-04T12:55:31;0.93;;;0.70;;
30539;SDS011;17321;46.312;4.776;2024-02-04T12:58:01;2.88;;;0.98;;
30539;SDS011;17321;46.312;4.776;2024-02-04T13:00:28;1.13;;;0.50;;
30539;SDS011;17321;46.312;4.776;2024-02-04T13:02:55;0.98;;;0.88;;
30539;SDS011;17321;46.312;4.776;2024-02-04T13:05:22;0.82;;;0.75;;
30539;SDS011;17321;46.312;4.776;2024-02-04T13:07:52;0.60;;;0.60;;
30539;SDS011;17321;46.312;4.776;2024-02-04T13:10:20;2.40;;;0.85;;
30539;SDS011;17321;46.312;4.776;2024-02-04T13:12:46;2.97;;;1.00;;
30539;SDS011;17321;46.312;4.776;2024-02-04T13:15:12;1.90;;;0.70;;
30539;SDS011;17321;46.312;4.776;2024-02-04T13:17:38;1.45;;;0.63;;
30539;SDS011;17321;46.312;4.776;2024-02-04T13:20:04;0.80;;;0.80;;
30539;SDS011;17321;46.312;4.776;2024-02-04T13:22:30;0.65;;;0.60;;
30539;SDS011;17321;46.312;4.776;2024-02-04T13:24:56;1.33;;;0.73;;
30539;SDS011;17321;46.312;4.776;2024-02-04T13:27:22;1.65;;;0.70;;
30539;SDS011;17321;46.312;4.776;2024-02-04T13:29:48;1.05;;;0.70;;
30539;SDS011;17321;46.312;4.776;2024-02-04T13:32:15;1.02;;;0.85;;
30539;SDS011;17321;46.312;4.776;2024-02-04T13:34:41;1.65;;;0.90;;
30539;SDS011;17321;46.312;4.776;2024-02-04T13:37:07;1.25;;;0.95;;
30539;SDS011;17321;46.312;4.776;2024-02-04T13:39:33;1.38;;;0.80;;
30539;SDS011;17321;46.312;4.776;2024-02-04T13:41:59;0.95;;;0.75;;
30539;SDS011;17321;46.312;4.776;2024-02-04T13:44:25;1.05;;;0.90;;
30539;SDS011;17321;46.312;4.776;2024-02-04T13:46:51;3.75;;;0.90;;
30539;SDS011;17321;46.312;4.776;2024-02-04T13:49:17;1.02;;;0.80;;
30539;SDS011;17321;46.312;4.776;2024-02-04T13:51:43;1.05;;;0.95;;
30539;SDS011;17321;46.312;4.776;2024-02-04T13:54:09;1.10;;;0.60;;
30539;SDS011;17321;46.312;4.776;2024-02-04T13:56:36;1.10;;;0.70;;
30539;SDS011;17321;46.312;4.776;2024-02-04T13:59:02;0.98;;;0.90;;
30539;SDS011;17321;46.312;4.776;2024-02-04T14:01:28;1.27;;;0.73;;
30539;SDS011;17321;46.312;4.776;2024-02-04T14:03:55;2.25;;;0.90;;
30539;SDS011;17321;46.312;4.776;2024-02-04T14:06:21;0.82;;;0.82;;
30539;SDS011;17321;46.312;4.776;2024-02-04T14:08:47;3.22;;;1.35;;
30539;SDS011;17321;46.312;4.776;2024-02-04T14:11:13;1.02;;;0.93;;
30539;SDS011;17321;46.312;4.776;2024-02-04T14:13:39;1.45;;;0.80;;
30539;SDS011;17321;46.312;4.776;2024-02-04T14:16:05;3.80;;;0.82;;
30539;SDS011;17321;46.312;4.776;2024-02-04T14:18:34;2.38;;;1.20;;
30539;SDS011;17321;46.312;4.776;2024-02-04T14:21:00;0.82;;;0.80;;
30539;SDS011;17321;46.312;4.776;2024-02-04T14:23:26;0.98;;;0.90;;
30539;SDS011;17321;46.312;4.776;2024-02-04T14:25:52;1.35;;;0.82;;
30539;SDS011;17321;46.312;4.776;2024-02-04T14:28:18;1.23;;;0.80;;
30539;SDS011;17321;46.312;4.776;2024-02-04T14:30:44;1.45;;;0.80;;
30539;SDS011;17321;46.312;4.776;2024-02-04T14:33:10;0.95;;;0.93;;
30539;SDS011;17321;46.312;4.776;2024-02-04T14:35:36;2.35;;;1.35;;
30539;SDS011;17321;46.312;4.776;2024-02-04T14:38:03;1.63;;;0.90;;
30539;SDS011;17321;46.312;4.776;2024-02-04T14:40:29;1.17;;;1.00;;
30539;SDS011;17321;46.312;4.776;2024-02-04T14:42:55;2.25;;;0.98;;
30539;SDS011;17321;46.312;4.776;2024-02-04T14:45:21;1.10;;;1.00;;
30539;SDS011;17321;46.312;4.776;2024-02-04T14:47:47;2.95;;;0.98;;
30539;SDS011;17321;46.312;4.776;2024-02-04T14:50:13;3.15;;;0.82;;
30539;SDS011;17321;46.312;4.776;2024-02-04T14:52:41;1.15;;;1.00;;
30539;SDS011;17321;46.312;4.776;2024-02-04T14:55:07;2.05;;;1.02;;
30539;SDS011;17321;46.312;4.776;2024-02-04T14:57:34;1.23;;;0.60;;
30539;SDS011;17321;46.312;4.776;2024-02-04T15:00:01;2.97;;;0.82;;
30539;SDS011;17321;46.312;4.776;2024-02-04T15:02:27;3.33;;;1.05;;